sensor_id;sensor_type;location;lat;lon;timestamp;P1;durP1;ratioP1;P2;durP2;ratioP2
1214;SDS011;597;51.998;5.880;2022-12-18T00:00:24;115.33;;;45.77;;
1214;SDS011;597;51.998;5.880;2022-12-18T00:02:49;112.63;;;46.93;;
1214;SDS011;597;51.998;5.880;2022-12-18T00:05:15;98.93;;;44.20;;
1214;SDS011;597;51.998;5.880;2022-12-18T00:07:40;96.80;;;42.20;;
1214;SDS011;597;51.998;5.880;2022-12-18T00:10:05;114.77;;;45.53;;
1214;SDS011;597;51.998;5.880;2022-12-18T00:12:31;94.53;;;42.87;;
1214;SDS011;597;51.998;5.880;2022-12-18T00:14:56;110.13;;;44.40;;
1214;SDS011;597;51.998;5.880;2022-12-18T00:17:21;102.33;;;42.70;;
1214;SDS011;597;51.998;5.880;2022-12-18T00:19:46;105.10;;;44.77;;
1214;SDS011;597;51.998;5.880;2022-12-18T00:22:12;106.27;;;48.00;;
1214;SDS011;597;51.998;5.880;2022-12-18T00:24:37;95.93;;;43.97;;
1214;SDS011;597;51.998;5.880;2022-12-18T00:27:02;106.07;;;45.43;;
1214;SDS011;597;51.998;5.880;2022-12-18T00:29:27;101.20;;;42.93;;
1214;SDS011;597;51.998;5.880;2022-12-18T00:31:52;79.53;;;37.40;;
1214;SDS011;597;51.998;5.880;2022-12-18T00:34:18;101.97;;;42.70;;
1214;SDS011;597;51.998;5.880;2022-12-18T00:36:43;100.73;;;42.67;;
1214;SDS011;597;51.998;5.880;2022-12-18T00:39:09;90.13;;;41.10;;
1214;SDS011;597;51.998;5.880;2022-12-18T00:41:35;92.40;;;41.67;;
1214;SDS011;597;51.998;5.880;2022-12-18T00:44:32;85.63;;;40.67;;
1214;SDS011;597;51.998;5.880;2022-12-18T00:46:58;92.00;;;39.50;;
1214;SDS011;597;51.998;5.880;2022-12-18T00:49:23;86.60;;;40.30;;
1214;SDS011;597;51.998;5.880;2022-12-18T00:51:48;95.67;;;43.27;;
1214;SDS011;597;51.998;5.880;2022-12-18T00:54:14;76.40;;;40.70;;
1214;SDS011;597;51.998;5.880;2022-12-18T00:56:39;103.93;;;43.40;;
1214;SDS011;597;51.998;5.880;2022-12-18T00:59:05;80.03;;;42.20;;
1214;SDS011;597;51.998;5.880;2022-12-18T01:01:30;87.23;;;39.80;;
1214;SDS011;597;51.998;5.880;2022-12-18T01:03:55;94.30;;;37.80;;
1214;SDS011;597;51.998;5.880;2022-12-18T01:06:23;85.60;;;42.25;;
1214;SDS011;597;51.998;5.880;2022-12-18T01:08:49;79.63;;;39.23;;
1214;SDS011;597;51.998;5.880;2022-12-18T01:11:16;87.13;;;39.77;;
1214;SDS011;597;51.998;5.880;2022-12-18T01:13:41;80.45;;;41.75;;
1214;SDS011;597;51.998;5.880;2022-12-18T01:16:07;82.40;;;36.73;;
1214;SDS011;597;51.998;5.880;2022-12-18T01:18:33;82.38;;;37.58;;
1214;SDS011;597;51.998;5.880;2022-12-18T01:20:59;82.27;;;39.50;;
1214;SDS011;597;51.998;5.880;2022-12-18T01:23:24;72.17;;;36.33;;
1214;SDS011;597;51.998;5.880;2022-12-18T01:25:52;66.93;;;36.22;;
1214;SDS011;597;51.998;5.880;2022-12-18T01:28:17;79.13;;;38.90;;
1214;SDS011;597;51.998;5.880;2022-12-18T01:30:42;82.03;;;39.30;;
1214;SDS011;597;51.998;5.880;2022-12-18T01:33:07;76.40;;;35.67;;
1214;SDS011;597;51.998;5.880;2022-12-18T01:35:33;69.37;;;38.30;;
1214;SDS011;597;51.998;5.880;2022-12-18T01:38:01;82.72;;;41.10;;
1214;SDS011;597;51.998;5.880;2022-12-18T01:40:26;86.23;;;35.63;;
1214;SDS011;597;51.998;5.880;2022-12-18T01:42:52;68.80;;;35.50;;
1214;SDS011;597;51.998;5.880;2022-12-18T01:47:43;57.63;;;32.17;;
1214;SDS011;597;51.998;5.880;2022-12-18T01:50:16;71.22;;;33.95;;
1214;SDS011;597;51.998;5.880;2022-12-18T01:52:42;73.43;;;37.95;;
1214;SDS011;597;51.998;5.880;2022-12-18T01:55:11;91.30;;;38.75;;
1214;SDS011;597;51.998;5.880;2022-12-18T01:57:37;80.60;;;36.75;;
1214;SDS011;597;51.998;5.880;2022-12-18T02:00:07;72.60;;;34.67;;
1214;SDS011;597;51.998;5.880;2022-12-18T02:02:33;77.80;;;38.33;;
1214;SDS011;597;51.998;5.880;2022-12-18T02:04:58;64.83;;;34.67;;
1214;SDS011;597;51.998;5.880;2022-12-18T02:07:26;84.00;;;37.17;;
1214;SDS011;597;51.998;5.880;2022-12-18T02:09:59;72.97;;;33.80;;
1214;SDS011;597;51.998;5.880;2022-12-18T02:15:11;61.80;;;34.42;;
1214;SDS011;597;51.998;5.880;2022-12-18T02:17:40;72.03;;;35.85;;
1214;SDS011;597;51.998;5.880;2022-12-18T02:23:50;68.25;;;34.47;;
1214;SDS011;597;51.998;5.880;2022-12-18T02:28:42;65.82;;;32.65;;
1214;SDS011;597;51.998;5.880;2022-12-18T02:31:11;70.65;;;34.03;;
1214;SDS011;597;51.998;5.880;2022-12-18T02:33:36;74.15;;;36.00;;
1214;SDS011;597;51.998;5.880;2022-12-18T02:36:02;61.53;;;35.10;;
1214;SDS011;597;51.998;5.880;2022-12-18T02:38:28;64.60;;;34.17;;
1214;SDS011;597;51.998;5.880;2022-12-18T02:40:54;77.47;;;34.42;;
1214;SDS011;597;51.998;5.880;2022-12-18T02:43:20;62.00;;;30.47;;
1214;SDS011;597;51.998;5.880;2022-12-18T02:45:46;59.33;;;33.17;;
1214;SDS011;597;51.998;5.880;2022-12-18T02:48:12;54.60;;;29.73;;
1214;SDS011;597;51.998;5.880;2022-12-18T02:50:45;69.03;;;32.10;;
1214;SDS011;597;51.998;5.880;2022-12-18T02:53:16;55.53;;;31.65;;
1214;SDS011;597;51.998;5.880;2022-12-18T02:58:13;57.83;;;31.35;;
1214;SDS011;597;51.998;5.880;2022-12-18T03:00:41;57.05;;;31.45;;
1214;SDS011;597;51.998;5.880;2022-12-18T03:03:14;61.53;;;32.33;;
1214;SDS011;597;51.998;5.880;2022-12-18T03:05:43;61.83;;;30.25;;
1214;SDS011;597;51.998;5.880;2022-12-18T03:08:17;70.72;;;30.98;;
1214;SDS011;597;51.998;5.880;2022-12-18T03:10:45;65.18;;;31.88;;
1214;SDS011;597;51.998;5.880;2022-12-18T03:13:13;59.25;;;29.02;;
1214;SDS011;597;51.998;5.880;2022-12-18T03:15:47;63.22;;;31.90;;
1214;SDS011;597;51.998;5.880;2022-12-18T03:18:16;64.65;;;30.58;;
1214;SDS011;597;51.998;5.880;2022-12-18T03:20:42;56.13;;;29.73;;
1214;SDS011;597;51.998;5.880;2022-12-18T03:23:12;60.53;;;29.88;;
1214;SDS011;597;51.998;5.880;2022-12-18T03:25:39;59.92;;;30.42;;
1214;SDS011;597;51.998;5.880;2022-12-18T03:28:07;62.80;;;32.33;;
1214;SDS011;597;51.998;5.880;2022-12-18T03:30:34;63.08;;;29.40;;
1214;SDS011;597;51.998;5.880;2022-12-18T03:33:04;51.58;;;28.42;;
1214;SDS011;597;51.998;5.880;2022-12-18T03:35:31;55.45;;;29.67;;
1214;SDS011;597;51.998;5.880;2022-12-18T03:37:58;62.78;;;30.17;;
1214;SDS011;597;51.998;5.880;2022-12-18T03:40:27;58.00;;;29.00;;
1214;SDS011;597;51.998;5.880;2022-12-18T03:43:08;65.63;;;30.20;;
1214;SDS011;597;51.998;5.880;2022-12-18T03:45:37;57.75;;;28.23;;
1214;SDS011;597;51.998;5.880;2022-12-18T03:48:07;52.47;;;27.85;;
1214;SDS011;597;51.998;5.880;2022-12-18T03:50:44;48.15;;;26.42;;
1214;SDS011;597;51.998;5.880;2022-12-18T03:55:36;50.83;;;29.50;;
1214;SDS011;597;51.998;5.880;2022-12-18T03:58:02;47.33;;;27.00;;
1214;SDS011;597;51.998;5.880;2022-12-18T04:00:28;50.92;;;26.35;;
1214;SDS011;597;51.998;5.880;2022-12-18T04:02:54;57.13;;;26.27;;
1214;SDS011;597;51.998;5.880;2022-12-18T04:05:20;51.38;;;27.92;;
1214;SDS011;597;51.998;5.880;2022-12-18T04:07:47;48.38;;;24.98;;
1214;SDS011;597;51.998;5.880;2022-12-18T04:10:14;48.38;;;27.27;;
1214;SDS011;597;51.998;5.880;2022-12-18T04:12:41;48.30;;;27.17;;
1214;SDS011;597;51.998;5.880;2022-12-18T04:15:06;49.50;;;27.00;;
1214;SDS011;597;51.998;5.880;2022-12-18T04:17:32;49.27;;;26.87;;
1214;SDS011;597;51.998;5.880;2022-12-18T04:19:57;48.63;;;26.07;;
1214;SDS011;597;51.998;5.880;2022-12-18T04:22:22;54.33;;;27.47;;
1214;SDS011;597;51.998;5.880;2022-12-18T04:24:47;55.00;;;27.10;;
1214;SDS011;597;51.998;5.880;2022-12-18T04:27:13;52.83;;;25.80;;
1214;SDS011;597;51.998;5.880;2022-12-18T04:29:38;50.00;;;26.43;;
1214;SDS011;597;51.998;5.880;2022-12-18T04:32:03;48.23;;;26.70;;
1214;SDS011;597;51.998;5.880;2022-12-18T04:34:28;41.83;;;25.47;;
1214;SDS011;597;51.998;5.880;2022-12-18T04:36:54;46.67;;;26.40;;
1214;SDS011;597;51.998;5.880;2022-12-18T04:39:19;51.93;;;24.90;;
1214;SDS011;597;51.998;5.880;2022-12-18T04:41:44;49.27;;;24.90;;
1214;SDS011;597;51.998;5.880;2022-12-18T04:44:10;45.87;;;24.67;;
1214;SDS011;597;51.998;5.880;2022-12-18T04:46:35;37.13;;;23.93;;
1214;SDS011;597;51.998;5.880;2022-12-18T04:49:00;40.57;;;23.63;;
1214;SDS011;597;51.998;5.880;2022-12-18T04:51:25;44.90;;;23.03;;
1214;SDS011;597;51.998;5.880;2022-12-18T04:53:51;49.87;;;24.63;;
1214;SDS011;597;51.998;5.880;2022-12-18T04:56:16;42.30;;;24.13;;
1214;SDS011;597;51.998;5.880;2022-12-18T04:58:42;46.40;;;21.80;;
1214;SDS011;597;51.998;5.880;2022-12-18T05:01:07;37.47;;;21.00;;
1214;SDS011;597;51.998;5.880;2022-12-18T05:03:32;43.10;;;23.93;;
1214;SDS011;597;51.998;5.880;2022-12-18T05:05:58;54.50;;;23.03;;
1214;SDS011;597;51.998;5.880;2022-12-18T05:08:23;40.20;;;22.73;;
1214;SDS011;597;51.998;5.880;2022-12-18T05:10:48;39.60;;;20.17;;
1214;SDS011;597;51.998;5.880;2022-12-18T05:13:14;44.97;;;23.43;;
1214;SDS011;597;51.998;5.880;2022-12-18T05:15:39;49.57;;;23.20;;
1214;SDS011;597;51.998;5.880;2022-12-18T05:18:04;42.70;;;23.23;;
1214;SDS011;597;51.998;5.880;2022-12-18T05:20:30;38.57;;;22.23;;
1214;SDS011;597;51.998;5.880;2022-12-18T05:22:55;42.67;;;23.37;;
1214;SDS011;597;51.998;5.880;2022-12-18T05:25:20;41.73;;;21.80;;
1214;SDS011;597;51.998;5.880;2022-12-18T05:27:46;42.67;;;23.40;;
1214;SDS011;597;51.998;5.880;2022-12-18T05:30:12;37.60;;;22.80;;
1214;SDS011;597;51.998;5.880;2022-12-18T05:32:37;36.13;;;23.53;;
1214;SDS011;597;51.998;5.880;2022-12-18T05:35:03;36.30;;;20.70;;
1214;SDS011;597;51.998;5.880;2022-12-18T05:37:29;40.05;;;21.67;;
1214;SDS011;597;51.998;5.880;2022-12-18T05:39:54;37.80;;;20.93;;
1214;SDS011;597;51.998;5.880;2022-12-18T05:42:19;36.73;;;22.37;;
1214;SDS011;597;51.998;5.880;2022-12-18T05:44:44;42.60;;;22.80;;
1214;SDS011;597;51.998;5.880;2022-12-18T05:47:10;40.17;;;22.70;;
1214;SDS011;597;51.998;5.880;2022-12-18T05:49:35;35.23;;;22.07;;
1214;SDS011;597;51.998;5.880;2022-12-18T05:52:00;45.30;;;21.50;;
1214;SDS011;597;51.998;5.880;2022-12-18T05:54:28;44.83;;;23.93;;
1214;SDS011;597;51.998;5.880;2022-12-18T05:56:53;42.72;;;22.13;;
1214;SDS011;597;51.998;5.880;2022-12-18T05:59:19;36.50;;;22.40;;
1214;SDS011;597;51.998;5.880;2022-12-18T06:01:44;42.57;;;24.80;;
1214;SDS011;597;51.998;5.880;2022-12-18T06:04:09;40.43;;;25.57;;
1214;SDS011;597;51.998;5.880;2022-12-18T06:06:34;32.37;;;21.17;;
1214;SDS011;597;51.998;5.880;2022-12-18T06:09:00;36.90;;;22.40;;
1214;SDS011;597;51.998;5.880;2022-12-18T06:11:27;41.35;;;22.33;;
1214;SDS011;597;51.998;5.880;2022-12-18T06:13:52;34.93;;;20.60;;
1214;SDS011;597;51.998;5.880;2022-12-18T06:16:18;36.10;;;23.17;;
1214;SDS011;597;51.998;5.880;2022-12-18T06:18:43;34.83;;;20.97;;
1214;SDS011;597;51.998;5.880;2022-12-18T06:21:09;36.77;;;22.33;;
1214;SDS011;597;51.998;5.880;2022-12-18T06:23:34;34.33;;;22.53;;
1214;SDS011;597;51.998;5.880;2022-12-18T06:26:03;39.03;;;22.23;;
1214;SDS011;597;51.998;5.880;2022-12-18T06:28:28;33.30;;;20.85;;
1214;SDS011;597;51.998;5.880;2022-12-18T06:30:53;36.37;;;21.80;;
1214;SDS011;597;51.998;5.880;2022-12-18T06:33:19;36.77;;;20.97;;
1214;SDS011;597;51.998;5.880;2022-12-18T06:35:44;44.20;;;19.63;;
1214;SDS011;597;51.998;5.880;2022-12-18T06:38:09;35.57;;;23.40;;
1214;SDS011;597;51.998;5.880;2022-12-18T06:40:36;40.70;;;19.90;;
1214;SDS011;597;51.998;5.880;2022-12-18T06:43:01;37.55;;;21.90;;
1214;SDS011;597;51.998;5.880;2022-12-18T06:45:26;39.07;;;21.70;;
1214;SDS011;597;51.998;5.880;2022-12-18T06:47:51;33.83;;;22.30;;
1214;SDS011;597;51.998;5.880;2022-12-18T06:50:17;35.53;;;21.27;;
1214;SDS011;597;51.998;5.880;2022-12-18T06:52:42;36.43;;;21.00;;
1214;SDS011;597;51.998;5.880;2022-12-18T06:55:09;40.75;;;20.08;;
1214;SDS011;597;51.998;5.880;2022-12-18T06:57:34;37.37;;;23.33;;
1214;SDS011;597;51.998;5.880;2022-12-18T07:00:00;40.60;;;23.47;;
1214;SDS011;597;51.998;5.880;2022-12-18T07:02:25;39.50;;;20.93;;
1214;SDS011;597;51.998;5.880;2022-12-18T07:04:50;37.93;;;19.07;;
1214;SDS011;597;51.998;5.880;2022-12-18T07:07:16;32.53;;;20.10;;
1214;SDS011;597;51.998;5.880;2022-12-18T07:09:41;38.13;;;20.57;;
1214;SDS011;597;51.998;5.880;2022-12-18T07:12:06;30.97;;;17.90;;
1214;SDS011;597;51.998;5.880;2022-12-18T07:14:32;33.60;;;19.73;;
1214;SDS011;597;51.998;5.880;2022-12-18T07:16:58;37.33;;;20.90;;
1214;SDS011;597;51.998;5.880;2022-12-18T07:19:23;35.47;;;20.53;;
1214;SDS011;597;51.998;5.880;2022-12-18T07:21:49;32.33;;;21.00;;
1214;SDS011;597;51.998;5.880;2022-12-18T07:24:14;41.63;;;19.10;;
1214;SDS011;597;51.998;5.880;2022-12-18T07:26:39;34.10;;;19.90;;
1214;SDS011;597;51.998;5.880;2022-12-18T07:29:05;32.43;;;19.20;;
1214;SDS011;597;51.998;5.880;2022-12-18T07:31:30;33.07;;;19.40;;
1214;SDS011;597;51.998;5.880;2022-12-18T07:33:56;33.13;;;20.83;;
1214;SDS011;597;51.998;5.880;2022-12-18T07:36:21;33.00;;;18.43;;
1214;SDS011;597;51.998;5.880;2022-12-18T07:38:50;34.80;;;18.50;;
1214;SDS011;597;51.998;5.880;2022-12-18T07:41:16;28.73;;;17.25;;
1214;SDS011;597;51.998;5.880;2022-12-18T07:43:41;33.13;;;19.67;;
1214;SDS011;597;51.998;5.880;2022-12-18T07:46:07;35.77;;;18.67;;
1214;SDS011;597;51.998;5.880;2022-12-18T07:48:33;27.40;;;15.47;;
1214;SDS011;597;51.998;5.880;2022-12-18T07:50:59;30.63;;;15.90;;
1214;SDS011;597;51.998;5.880;2022-12-18T07:53:24;30.30;;;16.70;;
1214;SDS011;597;51.998;5.880;2022-12-18T07:55:54;30.63;;;17.47;;
1214;SDS011;597;51.998;5.880;2022-12-18T07:58:19;23.15;;;16.15;;
1214;SDS011;597;51.998;5.880;2022-12-18T08:00:44;30.00;;;19.17;;
1214;SDS011;597;51.998;5.880;2022-12-18T08:03:09;28.33;;;16.47;;
1214;SDS011;597;51.998;5.880;2022-12-18T08:05:35;36.93;;;18.20;;
1214;SDS011;597;51.998;5.880;2022-12-18T08:08:00;30.30;;;18.00;;
1214;SDS011;597;51.998;5.880;2022-12-18T08:10:25;29.00;;;17.73;;
1214;SDS011;597;51.998;5.880;2022-12-18T08:12:50;24.47;;;15.97;;
1214;SDS011;597;51.998;5.880;2022-12-18T08:15:16;25.83;;;15.30;;
1214;SDS011;597;51.998;5.880;2022-12-18T08:17:41;29.27;;;15.67;;
1214;SDS011;597;51.998;5.880;2022-12-18T08:20:07;27.43;;;15.37;;
1214;SDS011;597;51.998;5.880;2022-12-18T08:22:33;27.10;;;15.30;;
1214;SDS011;597;51.998;5.880;2022-12-18T08:24:58;23.85;;;15.35;;
1214;SDS011;597;51.998;5.880;2022-12-18T08:27:23;22.73;;;13.67;;
1214;SDS011;597;51.998;5.880;2022-12-18T08:29:49;25.13;;;14.00;;
1214;SDS011;597;51.998;5.880;2022-12-18T08:32:14;25.37;;;15.70;;
1214;SDS011;597;51.998;5.880;2022-12-18T08:34:39;27.67;;;16.47;;
1214;SDS011;597;51.998;5.880;2022-12-18T08:37:04;35.93;;;16.30;;
1214;SDS011;597;51.998;5.880;2022-12-18T08:39:30;21.13;;;13.40;;
1214;SDS011;597;51.998;5.880;2022-12-18T08:41:55;23.83;;;14.37;;
1214;SDS011;597;51.998;5.880;2022-12-18T08:44:39;29.20;;;14.75;;
1214;SDS011;597;51.998;5.880;2022-12-18T08:47:06;22.63;;;12.73;;
1214;SDS011;597;51.998;5.880;2022-12-18T08:49:31;25.23;;;14.40;;
1214;SDS011;597;51.998;5.880;2022-12-18T08:51:56;23.47;;;15.37;;
1214;SDS011;597;51.998;5.880;2022-12-18T08:54:22;22.33;;;13.90;;
1214;SDS011;597;51.998;5.880;2022-12-18T08:56:47;21.53;;;13.17;;
1214;SDS011;597;51.998;5.880;2022-12-18T08:59:13;22.43;;;13.13;;
1214;SDS011;597;51.998;5.880;2022-12-18T09:01:38;24.83;;;15.23;;
1214;SDS011;597;51.998;5.880;2022-12-18T09:04:03;22.80;;;13.47;;
1214;SDS011;597;51.998;5.880;2022-12-18T09:06:28;23.63;;;14.60;;
1214;SDS011;597;51.998;5.880;2022-12-18T09:08:54;21.00;;;13.20;;
1214;SDS011;597;51.998;5.880;2022-12-18T09:11:23;19.97;;;13.60;;
1214;SDS011;597;51.998;5.880;2022-12-18T09:13:49;27.52;;;12.82;;
1214;SDS011;597;51.998;5.880;2022-12-18T09:16:15;22.47;;;13.80;;
1214;SDS011;597;51.998;5.880;2022-12-18T09:18:40;22.87;;;13.70;;
1214;SDS011;597;51.998;5.880;2022-12-18T09:21:09;23.70;;;12.40;;
1214;SDS011;597;51.998;5.880;2022-12-18T09:23:34;23.55;;;14.23;;
1214;SDS011;597;51.998;5.880;2022-12-18T09:25:59;19.80;;;12.20;;
1214;SDS011;597;51.998;5.880;2022-12-18T09:28:24;25.80;;;13.80;;
1214;SDS011;597;51.998;5.880;2022-12-18T09:30:50;26.13;;;15.30;;
1214;SDS011;597;51.998;5.880;2022-12-18T09:33:15;21.50;;;11.80;;
1214;SDS011;597;51.998;5.880;2022-12-18T09:35:41;19.57;;;12.40;;
1214;SDS011;597;51.998;5.880;2022-12-18T09:38:07;19.98;;;12.95;;
1214;SDS011;597;51.998;5.880;2022-12-18T09:40:34;18.85;;;11.95;;
1214;SDS011;597;51.998;5.880;2022-12-18T09:43:00;23.42;;;13.60;;
1214;SDS011;597;51.998;5.880;2022-12-18T09:45:28;17.17;;;12.30;;
1214;SDS011;597;51.998;5.880;2022-12-18T09:47:55;20.65;;;12.85;;
1214;SDS011;597;51.998;5.880;2022-12-18T09:50:31;23.00;;;13.30;;
1214;SDS011;597;51.998;5.880;2022-12-18T09:52:59;21.92;;;11.80;;
1214;SDS011;597;51.998;5.880;2022-12-18T09:57:58;20.85;;;11.82;;
1214;SDS011;597;51.998;5.880;2022-12-18T10:00:26;21.00;;;13.20;;
1214;SDS011;597;51.998;5.880;2022-12-18T10:02:51;20.27;;;12.57;;
1214;SDS011;597;51.998;5.880;2022-12-18T10:05:20;15.82;;;11.27;;
1214;SDS011;597;51.998;5.880;2022-12-18T10:20:49;21.03;;;12.73;;
1214;SDS011;597;51.998;5.880;2022-12-18T10:28:20;25.60;;;14.38;;
1214;SDS011;597;51.998;5.880;2022-12-18T10:30:45;20.00;;;11.93;;
1214;SDS011;597;51.998;5.880;2022-12-18T10:33:20;16.43;;;12.60;;
1214;SDS011;597;51.998;5.880;2022-12-18T10:35:47;20.13;;;12.73;;
1214;SDS011;597;51.998;5.880;2022-12-18T10:40:48;24.85;;;13.82;;
1214;SDS011;597;51.998;5.880;2022-12-18T10:43:14;18.98;;;12.50;;
1214;SDS011;597;51.998;5.880;2022-12-18T10:45:40;21.00;;;12.63;;
1214;SDS011;597;51.998;5.880;2022-12-18T10:48:16;23.53;;;13.87;;
1214;SDS011;597;51.998;5.880;2022-12-18T10:50:42;23.60;;;13.90;;
1214;SDS011;597;51.998;5.880;2022-12-18T10:53:13;20.85;;;13.02;;
1214;SDS011;597;51.998;5.880;2022-12-18T10:55:44;23.15;;;13.68;;
1214;SDS011;597;51.998;5.880;2022-12-18T10:58:20;25.40;;;14.38;;
1214;SDS011;597;51.998;5.880;2022-12-18T11:03:38;21.13;;;12.85;;
1214;SDS011;597;51.998;5.880;2022-12-18T11:06:04;24.33;;;13.38;;
1214;SDS011;597;51.998;5.880;2022-12-18T11:08:30;20.27;;;13.10;;
1214;SDS011;597;51.998;5.880;2022-12-18T11:10:55;22.00;;;13.77;;
1214;SDS011;597;51.998;5.880;2022-12-18T11:13:21;21.23;;;13.30;;
1214;SDS011;597;51.998;5.880;2022-12-18T11:15:47;20.92;;;13.90;;
1214;SDS011;597;51.998;5.880;2022-12-18T11:18:19;23.27;;;12.77;;
1214;SDS011;597;51.998;5.880;2022-12-18T11:20:50;25.45;;;14.80;;
1214;SDS011;597;51.998;5.880;2022-12-18T11:23:15;21.15;;;14.43;;
1214;SDS011;597;51.998;5.880;2022-12-18T11:25:41;17.93;;;13.10;;
1214;SDS011;597;51.998;5.880;2022-12-18T11:28:25;22.42;;;13.80;;
1214;SDS011;597;51.998;5.880;2022-12-18T11:33:36;23.30;;;14.02;;
1214;SDS011;597;51.998;5.880;2022-12-18T11:36:02;25.15;;;16.13;;
1214;SDS011;597;51.998;5.880;2022-12-18T11:38:29;31.50;;;14.77;;
1214;SDS011;597;51.998;5.880;2022-12-18T11:41:39;26.02;;;16.40;;
1214;SDS011;597;51.998;5.880;2022-12-18T11:43:53;24.70;;;14.50;;
1214;SDS011;597;51.998;5.880;2022-12-18T11:46:24;28.08;;;15.82;;
1214;SDS011;597;51.998;5.880;2022-12-18T11:48:56;21.95;;;14.00;;
1214;SDS011;597;51.998;5.880;2022-12-18T11:51:28;23.55;;;15.48;;
1214;SDS011;597;51.998;5.880;2022-12-18T11:53:55;23.60;;;15.68;;
1214;SDS011;597;51.998;5.880;2022-12-18T11:56:26;21.43;;;15.33;;
1214;SDS011;597;51.998;5.880;2022-12-18T11:58:58;25.15;;;14.40;;
1214;SDS011;597;51.998;5.880;2022-12-18T12:06:19;21.70;;;13.83;;
1214;SDS011;597;51.998;5.880;2022-12-18T12:08:56;23.55;;;14.43;;
1214;SDS011;597;51.998;5.880;2022-12-18T12:16:29;24.38;;;13.63;;
1214;SDS011;597;51.998;5.880;2022-12-18T12:19:04;23.77;;;14.63;;
1214;SDS011;597;51.998;5.880;2022-12-18T12:21:41;28.05;;;15.80;;
1214;SDS011;597;51.998;5.880;2022-12-18T12:26:54;19.63;;;11.90;;
1214;SDS011;597;51.998;5.880;2022-12-18T12:29:36;26.58;;;13.15;;
1214;SDS011;597;51.998;5.880;2022-12-18T12:34:37;20.25;;;13.48;;
1214;SDS011;597;51.998;5.880;2022-12-18T12:37:11;26.07;;;15.43;;
1214;SDS011;597;51.998;5.880;2022-12-18T12:39:40;23.15;;;14.45;;
1214;SDS011;597;51.998;5.880;2022-12-18T12:42:11;22.80;;;14.30;;
1214;SDS011;597;51.998;5.880;2022-12-18T12:44:56;20.70;;;14.05;;
1214;SDS011;597;51.998;5.880;2022-12-18T12:47:28;30.85;;;13.65;;
1214;SDS011;597;51.998;5.880;2022-12-18T12:49:55;20.17;;;13.80;;
1214;SDS011;597;51.998;5.880;2022-12-18T12:52:40;20.33;;;13.27;;
1214;SDS011;597;51.998;5.880;2022-12-18T12:55:23;25.25;;;14.93;;
1214;SDS011;597;51.998;5.880;2022-12-18T12:57:57;22.75;;;15.30;;
1214;SDS011;597;51.998;5.880;2022-12-18T13:00:24;25.05;;;15.10;;
1214;SDS011;597;51.998;5.880;2022-12-18T13:02:59;21.67;;;13.60;;
1214;SDS011;597;51.998;5.880;2022-12-18T13:05:34;23.92;;;14.27;;
1214;SDS011;597;51.998;5.880;2022-12-18T13:08:04;20.23;;;13.50;;
1214;SDS011;597;51.998;5.880;2022-12-18T13:15:41;31.00;;;20.25;;
1214;SDS011;597;51.998;5.880;2022-12-18T13:20:37;26.50;;;16.23;;
1214;SDS011;597;51.998;5.880;2022-12-18T13:23:19;24.92;;;15.48;;
1214;SDS011;597;51.998;5.880;2022-12-18T13:25:44;24.48;;;16.33;;
1214;SDS011;597;51.998;5.880;2022-12-18T13:28:13;21.50;;;15.30;;
1214;SDS011;597;51.998;5.880;2022-12-18T13:38:35;26.52;;;16.35;;
1214;SDS011;597;51.998;5.880;2022-12-18T13:41:10;25.67;;;15.95;;
1214;SDS011;597;51.998;5.880;2022-12-18T13:48:49;24.60;;;16.30;;
1214;SDS011;597;51.998;5.880;2022-12-18T13:51:16;26.88;;;15.18;;
1214;SDS011;597;51.998;5.880;2022-12-18T13:53:43;23.75;;;16.40;;
1214;SDS011;597;51.998;5.880;2022-12-18T13:56:09;27.13;;;16.10;;
1214;SDS011;597;51.998;5.880;2022-12-18T13:58:39;33.80;;;17.67;;
1214;SDS011;597;51.998;5.880;2022-12-18T14:01:05;24.67;;;16.13;;
1214;SDS011;597;51.998;5.880;2022-12-18T14:03:30;27.87;;;16.77;;
1214;SDS011;597;51.998;5.880;2022-12-18T14:05:56;31.57;;;17.17;;
1214;SDS011;597;51.998;5.880;2022-12-18T14:08:23;25.38;;;15.68;;
1214;SDS011;597;51.998;5.880;2022-12-18T14:10:51;30.52;;;16.35;;
1214;SDS011;597;51.998;5.880;2022-12-18T14:13:23;26.08;;;15.55;;
1214;SDS011;597;51.998;5.880;2022-12-18T14:15:50;24.15;;;15.82;;
1214;SDS011;597;51.998;5.880;2022-12-18T14:20:51;31.05;;;16.00;;
1214;SDS011;597;51.998;5.880;2022-12-18T14:23:30;37.20;;;16.05;;
1214;SDS011;597;51.998;5.880;2022-12-18T14:25:56;26.92;;;15.80;;
1214;SDS011;597;51.998;5.880;2022-12-18T14:28:22;28.87;;;16.00;;
1214;SDS011;597;51.998;5.880;2022-12-18T14:30:48;26.05;;;14.65;;
1214;SDS011;597;51.998;5.880;2022-12-18T14:33:23;31.30;;;15.60;;
1214;SDS011;597;51.998;5.880;2022-12-18T14:38:24;28.50;;;15.10;;
1214;SDS011;597;51.998;5.880;2022-12-18T14:40:57;29.63;;;17.42;;
1214;SDS011;597;51.998;5.880;2022-12-18T14:43:26;20.40;;;15.18;;
1214;SDS011;597;51.998;5.880;2022-12-18T14:45:51;33.83;;;17.08;;
1214;SDS011;597;51.998;5.880;2022-12-18T14:48:21;29.55;;;16.48;;
1214;SDS011;597;51.998;5.880;2022-12-18T14:50:55;22.75;;;14.52;;
1214;SDS011;597;51.998;5.880;2022-12-18T14:53:27;30.38;;;16.63;;
1214;SDS011;597;51.998;5.880;2022-12-18T14:55:54;26.67;;;16.67;;
1214;SDS011;597;51.998;5.880;2022-12-18T14:58:19;25.90;;;17.07;;
1214;SDS011;597;51.998;5.880;2022-12-18T15:00:44;26.80;;;15.60;;
1214;SDS011;597;51.998;5.880;2022-12-18T15:03:09;25.23;;;16.57;;
1214;SDS011;597;51.998;5.880;2022-12-18T15:05:35;25.10;;;14.90;;
1214;SDS011;597;51.998;5.880;2022-12-18T15:08:00;26.70;;;17.00;;
1214;SDS011;597;51.998;5.880;2022-12-18T15:10:28;29.27;;;16.90;;
1214;SDS011;597;51.998;5.880;2022-12-18T15:15:55;26.70;;;17.67;;
1214;SDS011;597;51.998;5.880;2022-12-18T15:18:17;27.00;;;16.15;;
1214;SDS011;597;51.998;5.880;2022-12-18T15:20:44;25.17;;;17.33;;
1214;SDS011;597;51.998;5.880;2022-12-18T15:25:41;36.22;;;18.60;;
1214;SDS011;597;51.998;5.880;2022-12-18T15:33:47;27.83;;;19.75;;
1214;SDS011;597;51.998;5.880;2022-12-18T15:36:29;41.58;;;19.63;;
1214;SDS011;597;51.998;5.880;2022-12-18T15:39:01;39.08;;;23.90;;
1214;SDS011;597;51.998;5.880;2022-12-18T15:41:26;31.77;;;19.77;;
1214;SDS011;597;51.998;5.880;2022-12-18T15:43:52;34.90;;;21.50;;
1214;SDS011;597;51.998;5.880;2022-12-18T15:46:22;31.87;;;20.03;;
1214;SDS011;597;51.998;5.880;2022-12-18T15:48:51;31.98;;;19.65;;
1214;SDS011;597;51.998;5.880;2022-12-18T15:51:20;33.20;;;20.27;;
1214;SDS011;597;51.998;5.880;2022-12-18T15:53:46;35.67;;;20.27;;
1214;SDS011;597;51.998;5.880;2022-12-18T15:56:12;33.58;;;19.58;;
1214;SDS011;597;51.998;5.880;2022-12-18T15:58:57;34.65;;;20.20;;
1214;SDS011;597;51.998;5.880;2022-12-18T16:01:23;33.33;;;19.27;;
1214;SDS011;597;51.998;5.880;2022-12-18T16:03:48;31.60;;;19.63;;
1214;SDS011;597;51.998;5.880;2022-12-18T16:06:14;32.93;;;19.07;;
1214;SDS011;597;51.998;5.880;2022-12-18T16:08:39;36.40;;;19.63;;
1214;SDS011;597;51.998;5.880;2022-12-18T16:11:04;36.10;;;21.40;;
1214;SDS011;597;51.998;5.880;2022-12-18T16:13:30;32.40;;;19.65;;
1214;SDS011;597;51.998;5.880;2022-12-18T16:15:55;35.50;;;20.40;;
1214;SDS011;597;51.998;5.880;2022-12-18T16:18:21;41.07;;;22.00;;
1214;SDS011;597;51.998;5.880;2022-12-18T16:20:46;34.73;;;20.47;;
1214;SDS011;597;51.998;5.880;2022-12-18T16:23:11;33.60;;;21.60;;
1214;SDS011;597;51.998;5.880;2022-12-18T16:25:36;33.30;;;19.40;;
1214;SDS011;597;51.998;5.880;2022-12-18T16:28:01;37.30;;;20.10;;
1214;SDS011;597;51.998;5.880;2022-12-18T16:30:28;36.03;;;19.73;;
1214;SDS011;597;51.998;5.880;2022-12-18T16:32:55;35.45;;;22.20;;
1214;SDS011;597;51.998;5.880;2022-12-18T16:35:21;32.27;;;20.60;;
1214;SDS011;597;51.998;5.880;2022-12-18T16:37:46;42.60;;;22.60;;